Hovedside
METAR-TAF:

METAR-TAF

Lufthavner :

Lycksele lufthavn

Lycksele, Sverige

breddegrad: 64-32-51N, lengdegrad: 018-43-03E, høyde over havet: 211 m

Gjeldene værobservasjon

Denne rapporten ble laget for 33 minutter siden, klokken 04:50 UTC
Vind 5 kt fra Nordvest
Temperatur -9°C
Luftfuktighet 92%
Trykk 1000 hPa
Sikt: 7000 m
Overskyet i en høyde av 1000 ft
(lett) kornsnø

METAR: ESNL 290450Z 32005KT 7000 -SG OVC010 M09/M10 Q1000

Tid: 06:23 (05:23 UTC)


TAF: fraværende

Værobservasjoner og værvarsel for over 4000 flyplasser (METAR- og TAF-rapporter).

Tilgjengelige stasjoner er representert av de røde og gule prikkene på kartet.

Hold musepekeren over prikken for å se navnet på stasjonen.

Klikk så for å se værobservasjoner og -varsler.

For å forandre kartet kan du klikke på den grønne knappen med svart kryss for å zoome inn, på den grønne knappen med strek for å zoome ut, eller på de grønne pilene for å se tilstøtende kart.


METAR-TAF: